Tiempo atmosférico en la estación meteorológica de Barcelona, Barcelona (25 m.)



Fecha
DESCASC
Temp. máxima en grados centígrados (hora)
DESCASC
Temp. mínima en grados centígrados (hora)
DESCASC
Temp. media en grados centígrados
DESCASC
Racha de viento máxima en m/sg (hora)
DESCASC
Velocidad máxima media en intervalos de 10 minutos(hora)
DESCASC
Precipitaciones diarias en mm
DESCASC
Precipitaciones de 00:00 a 06:00 en mm
DESCASC
Precipitaciones de 06:00 a 12:00 en mm
DESCASC
Precipitaciones de 12:00 a 18:00 en mm
DESCASC
Precipitaciones de 18:00 a 24:00 en mm
DESCASC
06-07-2020 28.5 (15:40) 22.1 (06:00) 25.3 6.94 (19:20) 5.83 (19:10) 0 0 0 0 0
05-07-2020 28.2 (18:00) 20.5 (06:50) 24.4 9.72 (18:40) 7.5 (15:50) 0 0 0 0 0
04-07-2020 25.3 (13:00) 21 (06:50) 23.1 9.44 (09:00) 7.78 (08:50) 0.2 0.2 0 0 0
03-07-2020 24.5 (01:10) 19.8 (07:00) 22.1 10 (16:30) 7.78 (16:40) 15.4 15.1 0.3 0 0
02-07-2020 27.2 (17:20) 23.3 (00:00) 25.3 9.17 (14:30) 7.22 (14:10) 0 0 0 0 0
01-07-2020 30 (16:10) 22.6 (00:00) 26.3 5.28 (23:00) 4.72 (22:50) 0 0 0 0 0
30-06-2020 27.2 (14:50) 23 (00:00) 25.1 6.39 (17:50) 5 (17:50) 0 0 0 0 0
29-06-2020 27.7 (13:50) 22.3 (00:00) 25 6.94 (23:30) 5 (19:50) 0 0 0 0 0
28-06-2020 26.7 (10:50) 22 (00:00) 24.4 8.33 (17:10) 6.94 (17:00) 0 0 0 0 0
27-06-2020 27.5 (14:50) 21.9 (00:00) 24.7 6.11 (15:00) 4.44 (15:00) 0 0 0 0 0
26-06-2020 28.9 (15:40) 22.4 (00:00) 25.6 5 (12:10) 3.89 (18:20) 0 0 0 0 0
25-06-2020 27.9 (17:40) 22 (00:00) 24.9 5 (14:00) 3.89 (11:30) 0 0 0 0 0
24-06-2020 24.9 (15:10) 20.7 (00:00) 22.8 6.39 (11:20) 5.28 (10:50) 0 0 0 0 0
23-06-2020 26.1 (09:50) 20.7 (00:00) 23.4 10.28 (14:20) 8.33 (15:50) 0 0 0 0 0
22-06-2020 25.3 (09:20) 20.8 (00:00) 23 6.11 (13:40) 5 (13:30) 0 0 0 0 0
21-06-2020 25.3 (18:10) 19.9 (00:00) 22.6 8.89 (16:10) 7.22 (16:20) 0 0 0 0 0
20-06-2020 24.1 (09:50) 18.7 (00:00) 21.4 9.72 (15:40) 8.33 (16:00) 0 0 0 0 0
19-06-2020 23.9 (14:30) 17.9 (00:00) 20.9 8.06 (19:20) 6.67 (19:10) 0 0 0 0 0
18-06-2020 21.6 (16:50) 15 (00:00) 18.3 9.44 (10:10) 8.06 (00:20) 10.8 0 10.8 0 0
17-06-2020 22.5 (13:30) 16.1 (00:00) 19.3 9.17 (23:50) 7.78 (23:59) 0 0 0 0 0
16-06-2020 22.2 (20:10) 17.8 (00:00) 20 8.61 (15:40) 4.72 (15:10) 4.5 2.4 0 2.1 0
15-06-2020 24.7 (11:50) 18.6 (00:00) 21.7 9.44 (17:00) 7.78 (17:40) 0 0 0 0 0
14-06-2020 24.2 (11:40) 18 (00:00) 21.1 9.17 (16:20) 7.22 (15:30) 0 0 0 0 0
13-06-2020 27.6 (18:50) 16.9 (00:00) 22.3 11.39 (14:00) 7.78 (14:20) 0 0 0 0 0
12-06-2020 25 (12:50) 19.6 (00:00) 22.3 12.78 (17:30) 9.72 (15:20) 0 0 0 0 0
11-06-2020 22.9 (18:00) 16.7 (00:00) 19.8 6.67 (12:40) 5.28 (14:00) 0 0 0 0 0
10-06-2020 21.5 (18:40) 14.8 (00:00) 18.2 7.78 (16:00) 6.39 (15:30) 2.9 2.9 0 0 0
09-06-2020 21.7 (13:40) 14.7 (00:00) 18.2 8.33 (17:50) 6.39 (17:50) 8.5 0 0 4.8 3.7
08-06-2020 20.2 (15:10) 15.6 (10:10) 17.9 9.72 (10:30) 7.78 (10:40) 0.4 0.4 0 0 0

Gráficas

Temp. máximas Temp. mínimas Temp. medias Precipitaciones Rachas de viento máximas Velocidades máximas media en intervalos de 10 minutos

Datos horarios

Fecha y hora oficial Temperatura (ºC) Velocidad del viento (km/h) Dirección del viento Racha (km/h) Dirección de racha Precipitación (mm) Presión (hPa) Tendencia (hPa) Humedad (%)
2020-07-07 23:00:00 23.2 5 Sudeste 14 Sudeste 0 -- -- 86
2020-07-07 22:00:00 23.5 11 Sudeste 17 Sudeste 0 -- -- 86
2020-07-07 21:00:00 23.9 13 Sudeste 19 Sudeste 0 -- -- 86
2020-07-07 20:00:00 24.5 17 Sudeste 27 Sudeste 0 -- -- 84
2020-07-07 19:00:00 25.2 15 Sudeste 23 Sudeste 0 -- -- 81
2020-07-07 18:00:00 25.6 14 Sudeste 26 Sudeste 0 -- -- 79
2020-07-07 17:00:00 25.9 15 Sudeste 22 Sudeste 0 -- -- 79
2020-07-07 16:00:00 25.7 15 Sur 23 Sudeste 0 -- -- 78
2020-07-07 15:00:00 25.8 14 Sur 22 Sudeste 0 -- -- 74
2020-07-07 14:00:00 26 14 Sur 20 Sur 0 -- -- 72
2020-07-07 13:00:00 26.1 12 Sur 19 Sudeste 0 -- -- 69
2020-07-07 12:00:00 25.8 12 Sur 19 Sur 0 -- -- 67
2020-07-07 11:00:00 26 15 Sudeste 18 Sudeste 0 -- -- 69
2020-07-07 10:00:00 24.6 12 Sudeste 17 Sudeste 0 -- -- 75
2020-07-07 09:00:00 23.4 8 Sudoeste 11 Sur 0 -- -- 83
2020-07-07 08:00:00 22.7 0 Calma 8 Norte 0 -- -- 89
2020-07-07 07:00:00 23.2 2 Oeste 15 Nordeste 0 -- -- 90
2020-07-07 06:00:00 23.2 7 Norte 11 Norte 0 -- -- 90
2020-07-07 05:00:00 23.4 0 Calma -- -- 0 -- -- 93
2020-07-07 04:00:00 23.6 0 Calma 13 Sur 0 -- -- 93
2020-07-07 03:00:00 23.6 9 Sudoeste 13 Sur 0 -- -- 92
2020-07-07 02:00:00 23.9 8 Sur 11 Sudoeste 0 -- -- 92
2020-07-07 01:00:00 23.7 8 Sur 16 Sur 0 -- -- 92
2020-07-07 00:00:00 23.9 8 Sur 15 Sur 0 -- -- 92
2020-07-06 23:00:00 24 10 Sur 16 Sur 0 -- -- 91
2020-07-06 22:00:00 24.3 10 Sur 18 Sudeste 0 -- -- 91
2020-07-06 21:00:00 24.6 16 Sudeste 21 Sudeste 0 -- -- 91
2020-07-06 20:00:00 25.3 18 Sudeste 25 Sudeste 0 -- -- 90
2020-07-06 19:00:00 27 17 Sudeste 21 Este 0 -- -- 84
2020-07-06 18:00:00 27.1 18 Este 21 Este 0 -- -- 83
2020-07-06 17:00:00 27.5 17 Este 21 Este 0 -- -- 83
2020-07-06 16:00:00 28.1 15 Sudeste 19 Este 0 -- -- 81
2020-07-06 15:00:00 28 13 Sudeste 18 Sudeste 0 -- -- 80
2020-07-06 14:00:00 28 10 Sudeste 14 Sudeste 0 -- -- 73
2020-07-06 13:00:00 27.6 13 Sudeste 19 Este 0 -- -- 78
2020-07-06 12:00:00 27.9 9 Este 14 Este 0 -- -- 76
2020-07-06 11:00:00 27.4 9 Sudeste 16 Sudeste 0 -- -- 71
2020-07-06 10:00:00 27.4 5 Sudeste 10 Sur 0 -- -- 66
2020-07-06 09:00:00 26.2 5 Sur 8 Sur 0 -- -- 70
2020-07-06 08:00:00 25.2 0 Calma 8 Nordeste 0 -- -- 71
2020-07-06 07:00:00 22.6 3 Norte 7 Norte 0 -- -- 82
2020-07-06 06:00:00 22.1 0 Calma 4 Norte 0 -- -- 89
2020-07-06 05:00:00 22.9 2 Noroeste 5 Norte 0 -- -- 86
2020-07-06 04:00:00 23.5 4 Este 5 Nordeste 0 -- -- 84
2020-07-06 03:00:00 23.8 0 Calma 5 Este 0 -- -- 80
2020-07-06 02:00:00 24 3 Este 5 Este 0 -- -- 78
2020-07-06 01:00:00 25 0 Calma 11 Oeste 0 -- -- 70
2020-07-06 00:00:00 25.3 10 Oeste 14 Oeste 0 -- -- 68
2020-07-05 23:00:00 25.4 6 Oeste 13 Sudoeste 0 -- -- 75
2020-07-05 22:00:00 25.7 9 Sudoeste 20 Sudoeste 0 -- -- 74
2020-07-05 21:00:00 26.6 13 Sudoeste 22 Sudoeste 0 -- -- 61
2020-07-05 20:00:00 27.6 15 Sudoeste 29 Sudoeste 0 -- -- 56
2020-07-05 19:00:00 27.9 15 Sudoeste 35 Sudoeste 0 -- -- 55
2020-07-05 18:00:00 27.8 19 Sudoeste 32 Sudoeste 0 -- -- 55
2020-07-05 17:00:00 27.1 23 Sudoeste 32 Sudoeste 0 -- -- 61
2020-07-05 16:00:00 25.7 26 Sudoeste 32 Sudoeste 0 -- -- 71
2020-07-05 15:00:00 25.6 22 Sur 29 Sudoeste 0 -- -- 70
2020-07-05 14:00:00 25.1 23 Sudoeste 27 Sudoeste 0 -- -- 84
2020-07-05 13:00:00 24.8 23 Sudoeste 28 Sudoeste 0 -- -- 87
2020-07-05 12:00:00 25.2 19 Sur 24 Sur 0 -- -- 84
2020-07-05 11:00:00 27 8 Sudeste 12 Sudeste 0 -- -- 66
2020-07-05 10:00:00 25.9 8 Sudeste 11 Este 0 -- -- 66
2020-07-05 09:00:00 24.4 4 Nordeste 12 Nordeste 0 -- -- 68
2020-07-05 08:00:00 22.9 0 Calma 10 Norte 0 -- -- 74
2020-07-05 07:00:00 21.1 8 Norte 10 Norte 0 -- -- 78
2020-07-05 06:00:00 21.1 5 Norte 8 Norte 0 -- -- 78
2020-07-05 05:00:00 21.6 4 Nordeste 5 Nordeste 0 -- -- 78
2020-07-05 04:00:00 22.2 3 Sudoeste 7 Norte 0 -- -- 75
2020-07-05 03:00:00 22.5 5 Norte 11 Noroeste 0 -- -- 71
2020-07-05 02:00:00 22.7 6 Norte 9 Norte 0 -- -- 67
2020-07-05 01:00:00 23.3 4 Norte 7 Norte 0 -- -- 62
2020-07-05 00:00:00 23.8 4 Oeste 9 Oeste 0 -- -- 58
2020-07-04 23:00:00 23.9 6 Sudoeste 10 Sudoeste 0 -- -- 58
2020-07-04 22:00:00 24.1 5 Sudoeste 17 Sudoeste 0 -- -- 58
2020-07-04 21:00:00 24.8 11 Sudoeste 24 Sur 0 -- -- 57
2020-07-04 20:00:00 24.5 19 Sudoeste 24 Sudoeste 0 -- -- 70
2020-07-04 19:00:00 24.3 17 Sur 24 Sur 0 -- -- 80
2020-07-04 18:00:00 24 19 Sur 26 Sur 0 -- -- 79
2020-07-04 17:00:00 23.6 20 Sudoeste 27 Sur 0 -- -- 74
2020-07-04 16:00:00 23.4 22 Sur 27 Sur 0 -- -- 73
2020-07-04 15:00:00 23.7 15 Sur 23 Sur 0 -- -- 67
2020-07-04 14:00:00 24.3 15 Sur 22 Sur 0 -- -- 66
2020-07-04 13:00:00 25.1 13 Sur 21 Sudeste 0 -- -- 65
2020-07-04 12:00:00 25.1 12 Sudeste 20 Sudeste 0 -- -- 65
2020-07-04 11:00:00 23.7 11 Este 22 Este 0 -- -- 70
2020-07-04 10:00:00 22.6 17 Este 33 Sudeste 0 -- -- 77
2020-07-04 09:00:00 22.4 27 Sudeste 34 Sudeste 0 -- -- 78
2020-07-04 08:00:00 21.5 9 Norte 19 Noroeste 0 -- -- 88
2020-07-04 07:00:00 21.2 10 Norte 21 Norte 0 -- -- 91
2020-07-04 06:00:00 21.9 9 Noroeste 21 Norte 0 -- -- 90
2020-07-04 05:00:00 22 13 Noroeste 25 Sudeste 0.2 -- -- 90
2020-07-04 04:00:00 22.6 11 Sur 21 Sur 0 -- -- 89
2020-07-04 03:00:00 22.7 17 Sur 23 Sudoeste 0 -- -- 87
2020-07-04 02:00:00 22.6 15 Sur 23 Sudoeste 0 -- -- 86
2020-07-04 01:00:00 22.7 13 Sudoeste 28 Sur 0 -- -- 86
2020-07-04 00:00:00 22.7 23 Sur 34 Sur 0 -- -- 87
2020-07-03 23:00:00 22.6 22 Sur 35 Sur 0 -- -- 87
2020-07-03 22:00:00 22.7 21 Sur 33 Sudoeste 0 -- -- 86
2020-07-03 21:00:00 22.8 22 Sudoeste 31 Sudoeste 0 -- -- 86
2020-07-03 20:00:00 22.7 23 Sudoeste 32 Sur 0 -- -- 85
2020-07-03 19:00:00 22.9 23 Sudoeste 33 Sur 0 -- -- 83
2020-07-03 18:00:00 23.2 23 Sudoeste 35 Sudoeste 0 -- -- 80
2020-07-03 17:00:00 22.7 26 Sur 36 Sur 0 -- -- 83
2020-07-03 16:00:00 22.3 22 Sur 30 Sur 0 -- -- 82
2020-07-03 15:00:00 22.7 15 Sur 24 Sur 0 -- -- 79
2020-07-03 14:00:00 23.9 14 Sur 21 Sur 0 -- -- 70
2020-07-03 13:00:00 23.1 13 Sudeste 22 Sudeste 0 -- -- 74
2020-07-03 12:00:00 22.3 18 Sudeste 23 Sudeste 0 -- -- 82
2020-07-03 11:00:00 22.1 6 Este 14 Nordeste 0 -- -- 74
2020-07-03 10:00:00 21.2 6 Norte 17 Norte 0 -- -- 76
2020-07-03 09:00:00 20.6 10 Nordeste 15 Nordeste 0 -- -- 89
2020-07-03 08:00:00 20.5 6 Norte 14 Este 0 -- -- 90
2020-07-03 07:00:00 20.1 3 Noroeste 24 Norte 0.3 -- -- 90
2020-07-03 06:00:00 20.4 5 Norte 17 Sudoeste 15.1 -- -- 93
2020-07-03 05:00:00 23.3 9 Norte 18 Nordeste 0 -- -- 70
2020-07-03 04:00:00 23.9 8 Norte 13 Norte 0 -- -- 65
2020-07-03 03:00:00 24.4 6 Norte 17 Norte 0 -- -- 66
2020-07-03 02:00:00 24 12 Noroeste 22 Norte 0 -- -- 62
2020-07-03 01:00:00 24.4 4 Oeste 7 Oeste 0 -- -- 65
2020-07-03 00:00:00 23.9 2 Nordeste 30 Nordeste 0 -- -- 67
2020-07-02 23:00:00 24.7 7 Este 18 Nordeste 0 -- -- 69
2020-07-02 22:00:00 24.8 16 Este 25 Sudeste 0 -- -- 78
2020-07-02 21:00:00 25.1 21 Sudeste 29 Sudeste 0 -- -- 79
2020-07-02 20:00:00 25.9 24 Este 27 Este 0 -- -- 75
2020-07-02 19:00:00 26.9 19 Este 22 Sudeste 0 -- -- 71
2020-07-02 18:00:00 26.9 18 Sudeste 22 Sudeste 0 -- -- 79
2020-07-02 17:00:00 26.5 15 Sur 24 Sur 0 -- -- 78
2020-07-02 16:00:00 25.8 21 Sur 28 Sudoeste 0 -- -- 85
2020-07-02 15:00:00 25.8 24 Sudoeste 33 Sudoeste 0 -- -- 86
2020-07-02 14:00:00 26.1 25 Sudoeste 31 Sudoeste 0 -- -- 85
2020-07-02 13:00:00 25.8 23 Sur 28 Sudoeste 0 -- -- 87
2020-07-02 12:00:00 25.8 23 Sudoeste 27 Sudoeste 0 -- -- 86
2020-07-02 11:00:00 25.5 21 Sudoeste 26 Sudoeste 0 -- -- 86
2020-07-02 10:00:00 25.8 11 Sur 15 Sur 0 -- -- 87
2020-07-02 09:00:00 25.9 8 Sur 11 Sur 0 -- -- 86
2020-07-02 08:00:00 24.6 0 Calma -- -- 0 -- -- 89
2020-07-02 07:00:00 23.6 0 Calma 8 Norte 0 -- -- 91
2020-07-02 06:00:00 23.3 4 Norte 14 Nordeste 0 -- -- 91
2020-07-02 05:00:00 23.5 6 Nordeste 10 Nordeste 0 -- -- 91
2020-07-02 04:00:00 23.7 0 Calma -- -- 0 -- -- 91
2020-07-02 03:00:00 23.9 0 Calma 10 Este 0 -- -- 92
2020-07-02 02:00:00 24.2 5 Este 12 Sudeste 0 -- -- 91
2020-07-02 01:00:00 24.3 9 Este 16 Este 0 -- -- 91
2020-07-02 00:00:00 24.4 14 Este 19 Este 0 -- -- 91
2020-07-01 23:00:00 24.6 17 Este 19 Este 0 -- -- 92
2020-07-01 22:00:00 25 11 Este 13 Este 0 -- -- 91
2020-07-01 21:00:00 25.7 6 Sur 15 Sudoeste 0 -- -- 89
2020-07-01 20:00:00 26.2 11 Sur 15 Sur 0 -- -- 86
2020-07-01 19:00:00 27.1 10 Sur 19 Sudeste 0 -- -- 82
2020-07-01 18:00:00 27.7 13 Sudeste 16 Sudeste 0 -- -- 79
2020-07-01 17:00:00 29.1 11 Sudeste 13 Sudeste 0 -- -- 74
2020-07-01 16:00:00 29.7 10 Sudeste 14 Sudeste 0 -- -- 68
2020-07-01 15:00:00 29.3 12 Sudeste 14 Sudeste 0 -- -- 72
2020-07-01 14:00:00 28.1 12 Sudeste 15 Sudeste 0 -- -- 75
2020-07-01 13:00:00 27.7 11 Sudeste 14 Sudeste 0 -- -- 78
2020-07-01 12:00:00 27.8 10 Sudeste 16 Sudeste 0 -- -- 78
2020-07-01 11:00:00 26.4 14 Sudeste 18 Sudeste 0 -- -- 82
2020-07-01 10:00:00 28.1 6 Nordeste 17 Nordeste 0 -- -- 62
2020-07-01 09:00:00 25 12 Nordeste 16 Norte 0 -- -- 78
2020-07-01 08:00:00 24 6 Norte 12 Nordeste 0 -- -- 85
2020-07-01 07:00:00 22.6 6 Norte 10 Norte 0 -- -- 91
2020-07-01 06:00:00 22.8 2 Norte 8 Norte 0 -- -- 91
2020-07-01 05:00:00 23.1 0 Calma 9 Sudoeste 0 -- -- 91
2020-07-01 04:00:00 23.3 0 Calma 12 Sudoeste 0 -- -- 92
2020-07-01 03:00:00 23.2 0 Calma -- -- 0 -- -- 91
2020-07-01 02:00:00 23.7 0 Calma -- -- 0 -- -- 91
2020-07-01 01:00:00 23.5 0 Calma 6 Sur 0 -- -- 92
2020-07-01 00:00:00 23.5 5 Sudoeste 7 Sudoeste 0 -- -- 92
2020-06-30 23:00:00 23.7 2 Sur 8 Sur 0 -- -- 91
2020-06-30 22:00:00 23.9 6 Sudoeste 11 Sur 0 -- -- 91
2020-06-30 21:00:00 24.3 8 Sur 14 Sudoeste 0 -- -- 90
2020-06-30 20:00:00 25.1 11 Sur 16 Sur 0 -- -- 87
2020-06-30 19:00:00 25.4 13 Sur 21 Sur 0 -- -- 86
2020-06-30 18:00:00 25.3 18 Sur 23 Sur 0 -- -- 86
2020-06-30 17:00:00 25.9 16 Sur 21 Sur 0 -- -- 83
2020-06-30 16:00:00 26.4 15 Sur 23 Sur 0 -- -- 80
2020-06-30 15:00:00 26.9 14 Sur 21 Sur 0 -- -- 76
2020-06-30 14:00:00 26.3 16 Sur 21 Sur 0 -- -- 78
2020-06-30 13:00:00 26.3 12 Sur 18 Sur 0 -- -- 80
2020-06-30 12:00:00 24.7 11 Sur 17 Sur 0 -- -- 86
2020-06-30 11:00:00 24.3 10 Sur 15 Sur 0 -- -- 86
2020-06-30 10:00:00 24.3 9 Sur 12 Sur 0 -- -- 87
2020-06-30 09:00:00 23.7 10 Sudoeste 13 Sudoeste 0 -- -- 88
2020-06-30 08:00:00 23.7 8 Sur 12 Sur 0 -- -- 89
2020-06-30 07:00:00 23.3 8 Sur 11 Sur 0 -- -- 89
2020-06-30 06:00:00 23.1 6 Sur 10 Sur 0 -- -- 90
2020-06-30 05:00:00 23.2 6 Sur 11 Sur 0 -- -- 90
2020-06-30 04:00:00 23.4 5 Sur 10 Sur 0 -- -- 90
2020-06-30 03:00:00 23.4 7 Sur 13 Sur 0 -- -- 90
2020-06-30 02:00:00 23.7 9 Sur 15 Sur 0 -- -- 89
2020-06-30 01:00:00 23.8 12 Sur 21 Sur 0 -- -- 89
2020-06-30 00:00:00 23.8 16 Sur 25 Sur 0 -- -- 89
2020-06-29 23:00:00 23.9 15 Sur 22 Sur 0 -- -- 89
2020-06-29 22:00:00 24 16 Sur 22 Sur 0 -- -- 89
2020-06-29 21:00:00 24.7 14 Sur 22 Sur 0 -- -- 89
2020-06-29 20:00:00 24.7 18 Sur 23 Sur 0 -- -- 87
2020-06-29 19:00:00 25.4 16 Sur 23 Sur 0 -- -- 86
2020-06-29 18:00:00 26.2 15 Sur 22 Sur 0 -- -- 83
2020-06-29 17:00:00 26.9 14 Sur 20 Sur 0 -- -- 80
2020-06-29 16:00:00 26.9 15 Sur 48 Sur 0 -- -- 82
2020-06-29 15:00:00 27.1 14 Sur 19 Sudeste 0 -- -- 79
2020-06-29 14:00:00 27.5 13 Sur 19 Sur 0 -- -- 76
2020-06-29 13:00:00 27.5 12 Sur 19 Sudeste 0 -- -- 79
2020-06-29 12:00:00 27.1 10 Sur 17 Sudeste 0 -- -- 79
2020-06-29 11:00:00 26.3 12 Sudeste 15 Sudeste 0 -- -- 82
2020-06-29 10:00:00 25.3 13 Este 15 Este 0 -- -- 86
2020-06-29 09:00:00 24.5 10 Este 13 Este 0 -- -- 85
2020-06-29 08:00:00 24.2 2 Norte 8 Nordeste 0 -- -- 82
2020-06-29 07:00:00 22.7 0 Calma -- -- 0 -- -- 91
2020-06-29 06:00:00 22.5 0 Calma 8 Norte 0 -- -- 90
2020-06-29 05:00:00 22.8 6 Norte 11 Norte 0 -- -- 90
2020-06-29 04:00:00 23.2 0 Calma 10 Oeste 0 -- -- 89
2020-06-29 03:00:00 23.4 6 Sudoeste 15 Sudoeste 0 -- -- 90
2020-06-29 02:00:00 23.6 9 Sudoeste 14 Sudoeste 0 -- -- 90
2020-06-29 01:00:00 23.4 9 Sudoeste 12 Sudoeste 0 -- -- 92
2020-06-29 00:00:00 23.5 12 Sur 14 Sur 0 -- -- 92
2020-06-28 23:00:00 23.7 11 Sudoeste 17 Sudoeste 0 -- -- 92
2020-06-28 22:00:00 23.7 10 Sur 20 Sudoeste 0 -- -- 92
2020-06-28 21:00:00 24.5 12 Sur 22 Sudoeste 0 -- -- 91
2020-06-28 20:00:00 24.8 20 Sudoeste 29 Sudoeste 0 -- -- 90
2020-06-28 19:00:00 25.5 20 Sudoeste 29 Sudoeste 0 -- -- 85
2020-06-28 18:00:00 25.1 23 Sudoeste 30 Sudoeste 0 -- -- 87
2020-06-28 17:00:00 25.1 25 Sudoeste 28 Sudoeste 0 -- -- 86
2020-06-28 16:00:00 25.6 20 Sudoeste 25 Sudoeste 0 -- -- 86
2020-06-28 15:00:00 25.4 18 Sudoeste 23 Sudoeste 0 -- -- 85
2020-06-28 14:00:00 25.6 17 Sur 22 Sur 0 -- -- 84
2020-06-28 13:00:00 25.4 18 Sur 22 Sur 0 -- -- 84
2020-06-28 12:00:00 25.7 13 Sur 17 Sur 0 -- -- 82
2020-06-28 11:00:00 26.2 10 Sur 13 Sur 0 -- -- 80
2020-06-28 10:00:00 25.7 9 Sur 13 Sudoeste 0 -- -- 82
2020-06-28 09:00:00 25.9 6 Sudeste 11 Sur 0 -- -- 77
2020-06-28 08:00:00 24.5 0 Calma 10 Norte 0 -- -- 82
2020-06-28 07:00:00 22.4 4 Norte 14 Norte 0 -- -- 90
2020-06-28 06:00:00 22.3 6 Norte 12 Nordeste 0 -- -- 90
2020-06-28 05:00:00 22.5 6 Norte 9 Norte 0 -- -- 90
2020-06-28 04:00:00 22.9 0 Calma -- -- 0 -- -- 90
2020-06-28 03:00:00 23.1 0 Calma 8 Sudeste 0 -- -- 90
2020-06-28 02:00:00 23.4 6 Sudeste 15 Este 0 -- -- 90
2020-06-28 01:00:00 23.5 12 Este 17 Este 0 -- -- 90
2020-06-28 00:00:00 23.6 10 Sudeste 13 Sudeste 0 -- -- 89
2020-06-27 23:00:00 23.8 6 Sudeste 9 Este 0 -- -- 89
2020-06-27 22:00:00 24 5 Sudeste 10 Sudeste 0 -- -- 87
2020-06-27 21:00:00 24.8 8 Sudeste 14 Sudeste 0 -- -- 85
2020-06-27 20:00:00 25.3 8 Sudeste 15 Sur 0 -- -- 83
2020-06-27 19:00:00 26.4 10 Sudeste 18 Sudeste 0 -- -- 78
2020-06-27 18:00:00 25.8 10 Sudeste 19 Sudeste 0 -- -- 79
2020-06-27 17:00:00 26.4 13 Sudeste 19 Sudeste 0 -- -- 77
2020-06-27 16:00:00 26.3 13 Sudeste 19 Sudeste 0 -- -- 79
2020-06-27 15:00:00 26.6 16 Sudeste 22 Sudeste 0 -- -- 79
2020-06-27 14:00:00 26.8 14 Sudeste 19 Sudeste 0 -- -- 76
2020-06-27 13:00:00 27.1 14 Sudeste 19 Sudeste 0 -- -- 76
2020-06-27 12:00:00 26.5 13 Sudeste 16 Este 0 -- -- 79
2020-06-27 11:00:00 26.5 13 Sudeste 17 Este 0 -- -- 77
2020-06-27 10:00:00 25.6 15 Sudeste 19 Sudeste 0 -- -- 83
2020-06-27 09:00:00 24.9 6 Este 13 Nordeste 0 -- -- 82
2020-06-27 08:00:00 23.4 7 Norte 10 Nordeste 0 -- -- 82
2020-06-27 07:00:00 22.6 8 Nordeste 12 Nordeste 0 -- -- 85
2020-06-27 06:00:00 22.5 7 Norte 17 Norte 0 -- -- 73
2020-06-27 05:00:00 22.5 9 Norte 16 Nordeste 0 -- -- 76
2020-06-27 04:00:00 23.6 7 Sudeste 12 Este 0 -- -- 92
2020-06-27 03:00:00 23 5 Este 8 Este 0 -- -- 78
2020-06-27 02:00:00 23.4 5 Norte 10 Nordeste 0 -- -- 65
2020-06-27 01:00:00 23.6 6 Este 8 Este 0 -- -- 70
2020-06-27 00:00:00 23.6 0 Calma -- -- 0 -- -- 88
2020-06-26 23:00:00 23.7 0 Calma 10 Este 0 -- -- 89
2020-06-26 22:00:00 24 8 Este 11 Este 0 -- -- 90
2020-06-26 21:00:00 24.7 4 Este 11 Sudeste 0 -- -- 90
2020-06-26 20:00:00 26.7 9 Sudeste 15 Sudeste 0 -- -- 83
2020-06-26 19:00:00 27 13 Sudeste 16 Sudeste 0 -- -- 82
2020-06-26 18:00:00 27.8 12 Sudeste 16 Sudeste 0 -- -- 75
2020-06-26 17:00:00 28.1 14 Sudeste 16 Sudeste 0 -- -- 70
2020-06-26 16:00:00 28.8 12 Sudeste 13 Sudeste 0 -- -- 61
2020-06-26 15:00:00 28.3 10 Sudeste 34 Sudeste 0 -- -- 65
2020-06-26 14:00:00 27.7 12 Sudeste 14 Sudeste 0 -- -- 71
2020-06-26 13:00:00 27.7 9 Sudeste 18 Sur 0 -- -- 72
2020-06-26 12:00:00 27.1 11 Sur 16 Sur 0 -- -- 73
2020-06-26 11:00:00 26.4 8 Sur 12 Sudoeste 0 -- -- 62
2020-06-26 10:00:00 27.6 8 Sudeste 11 Sudeste 0 -- -- 48
2020-06-26 09:00:00 25.8 6 Norte 10 Norte 0 -- -- 56
2020-06-26 08:00:00 24.5 4 Norte 11 Norte 0 -- -- 61
2020-06-26 07:00:00 22.4 6 Norte 13 Norte 0 -- -- 66
2020-06-26 06:00:00 22.4 9 Norte 13 Norte 0 -- -- 65
2020-06-26 05:00:00 22.6 5 Norte 9 Norte 0 -- -- 72
2020-06-26 04:00:00 23.6 5 Oeste 13 Oeste 0 -- -- 78
2020-06-26 03:00:00 23.6 8 Sudoeste 12 Sudoeste 0 -- -- 87
2020-06-26 02:00:00 23 4 Sudoeste 9 Sur 0 -- -- 90
2020-06-26 01:00:00 23.5 0 Calma 7 Este 0 -- -- 90
2020-06-26 00:00:00 23.9 4 Este 8 Este 0 -- -- 84
2020-06-25 23:00:00 23.9 2 Sudoeste 14 Sur 0 -- -- 85
2020-06-25 22:00:00 24.1 11 Sudoeste 15 Sudoeste 0 -- -- 83
2020-06-25 21:00:00 24.4 9 Sudoeste 15 Sudoeste 0 -- -- 77
2020-06-25 20:00:00 26.1 8 Sur 14 Sudeste 0 -- -- 68
2020-06-25 19:00:00 27.3 7 Sudeste 13 Sur 0 -- -- 65
2020-06-25 18:00:00 27.4 9 Sudeste 15 Sudeste 0 -- -- 64
2020-06-25 17:00:00 26.9 11 Sudeste 16 Sudeste 0 -- -- 69
2020-06-25 16:00:00 27.2 10 Sudeste 17 Sudeste 0 -- -- 72
2020-06-25 15:00:00 27 10 Sudeste 18 Sudeste 0 -- -- 70
2020-06-25 14:00:00 26.5 11 Sur 18 Sudeste 0 -- -- 79
2020-06-25 13:00:00 26.3 11 Sur 18 Sudeste 0 -- -- 80
2020-06-25 12:00:00 26.6 12 Sudeste 15 Sudeste 0 -- -- 79
2020-06-25 11:00:00 26.5 12 Sudeste 14 Este 0 -- -- 76
2020-06-25 10:00:00 25.6 5 Sudeste 8 Este 0 -- -- 77
2020-06-25 09:00:00 24.5 4 Este 8 Este 0 -- -- 82
2020-06-25 08:00:00 23.6 0 Calma 6 Sur 0 -- -- 86
2020-06-25 07:00:00 22.4 0 Calma 6 Norte 0 -- -- 84
2020-06-25 06:00:00 22 5 Norte 12 Noroeste 0 -- -- 85
2020-06-25 05:00:00 22.1 7 Norte 14 Norte 0 -- -- 86
2020-06-25 04:00:00 22.8 0 Calma 13 Oeste 0 -- -- 89
2020-06-25 03:00:00 23.1 6 Oeste 12 Oeste 0 -- -- 88
2020-06-25 02:00:00 22.8 9 Sudoeste 14 Sudoeste 0 -- -- 90
2020-06-25 01:00:00 22.5 9 Sudoeste 13 Sudoeste 0 -- -- 91
2020-06-25 00:00:00 22.7 10 Sudoeste 16 Sudoeste 0 -- -- 91
2020-06-24 23:00:00 22.6 10 Sudoeste 15 Sudoeste 0 -- -- 90
2020-06-24 22:00:00 22.8 11 Sur 15 Sudoeste 0 -- -- 90
2020-06-24 21:00:00 22.8 8 Sudoeste 16 Sur 0 -- -- 90
2020-06-24 20:00:00 23.7 9 Sur 19 Sur 0 -- -- 89
2020-06-24 19:00:00 24.2 17 Sur 22 Sur 0 -- -- 83
2020-06-24 18:00:00 24.8 17 Sur 22 Sudoeste 0 -- -- 82
2020-06-24 17:00:00 24.5 19 Sudoeste 21 Sudoeste 0 -- -- 86
2020-06-24 16:00:00 24.9 15 Sur 19 Sur 0 -- -- 84
2020-06-24 15:00:00 24.8 15 Sur 57 Sur 0 -- -- 86
2020-06-24 14:00:00 24.5 13 Sur 21 Sur 0 -- -- 88
2020-06-24 13:00:00 24.2 17 Sur 21 Sudoeste 0 -- -- 87
2020-06-24 12:00:00 23.8 16 Sur 23 Sur 0 -- -- 87
2020-06-24 11:00:00 23.5 17 Sur 23 Sudoeste 0 -- -- 86
2020-06-24 10:00:00 23.5 15 Sudoeste 17 Sudoeste 0 -- -- 85
2020-06-24 09:00:00 24.1 8 Sur 12 Sudoeste 0 -- -- 81
2020-06-24 08:00:00 22.9 4 Oeste 12 Oeste 0 -- -- 82
2020-06-24 07:00:00 21.4 4 Oeste 9 Oeste 0 -- -- 85
2020-06-24 06:00:00 21.1 0 Calma 8 Oeste 0 -- -- 84
2020-06-24 05:00:00 21.3 2 Sudoeste 14 Oeste 0 -- -- 88
2020-06-24 04:00:00 21.4 5 Oeste 17 Oeste 0 -- -- 91
2020-06-24 03:00:00 21.7 9 Oeste 20 Oeste 0 -- -- 92
2020-06-24 02:00:00 21.9 9 Sudoeste 34 Sudoeste 0 -- -- 92
2020-06-24 01:00:00 22.2 10 Sudoeste 15 Sudoeste 0 -- -- 90
2020-06-24 00:00:00 22.6 9 Sudoeste 15 Sudoeste 0 -- -- 89
2020-06-23 23:00:00 22.8 10 Sudoeste 15 Sudoeste 0 -- -- 89
2020-06-23 22:00:00 23.6 6 Sudoeste 18 Sudoeste 0 -- -- 82
2020-06-23 21:00:00 23.6 13 Sudoeste 22 Sudoeste 0 -- -- 83
2020-06-23 20:00:00 24.2 18 Sudoeste 30 Sudoeste 0 -- -- 81
2020-06-23 19:00:00 24.8 21 Sudoeste 32 Sudoeste 0 -- -- 75
2020-06-23 18:00:00 24.5 24 Sudoeste 36 Sudoeste 0 -- -- 82
2020-06-23 17:00:00 24.4 26 Sudoeste 35 Sudoeste 0 -- -- 83
2020-06-23 16:00:00 23.8 30 Sudoeste 37 Sudoeste 0 -- -- 86
2020-06-23 15:00:00 23.9 28 Sudoeste 37 Sudoeste 0 -- -- 86
2020-06-23 14:00:00 23.6 28 Sudoeste 37 Sudoeste 0 -- -- 87
2020-06-23 13:00:00 23.7 26 Sudoeste 32 Sudoeste 0 -- -- 82
2020-06-23 12:00:00 23.6 24 Sudoeste 75 Sudoeste 0 -- -- 87
2020-06-23 11:00:00 23.7 21 Sudoeste 25 Sudoeste 0 -- -- 86
2020-06-23 10:00:00 25.8 10 Sudoeste 17 Sur 0 -- -- 66
2020-06-23 09:00:00 24.9 7 Sudeste 9 Sudeste 0 -- -- 76
2020-06-23 08:00:00 23.4 0 Calma -- -- 0 -- -- 82
2020-06-23 07:00:00 21 0 Calma -- -- 0 -- -- 89
2020-06-23 06:00:00 21.1 0 Calma -- -- 0 -- -- 90
2020-06-23 05:00:00 20.9 0 Calma 5 Este 0 -- -- 89
2020-06-23 04:00:00 21.4 0 Calma 5 Este 0 -- -- 88
2020-06-23 03:00:00 21.5 6 Nordeste 10 Este 0 -- -- 88
2020-06-23 02:00:00 22 4 Oeste 11 Oeste 0 -- -- 88
2020-06-23 01:00:00 21.7 0 Calma 8 Sudoeste 0 -- -- 89
2020-06-23 00:00:00 21.6 0 Calma -- -- 0 -- -- 88
2020-06-22 23:00:00 21.9 0 Calma 7 Sudeste 0 -- -- 87
2020-06-22 22:00:00 22.3 5 Sudeste 10 Sudeste 0 -- -- 85
2020-06-22 21:00:00 23.2 9 Sudeste 14 Sur 0 -- -- 83
2020-06-22 20:00:00 23.7 9 Sur 14 Sudeste 0 -- -- 79
2020-06-22 19:00:00 24.3 10 Sur 16 Sudoeste 0 -- -- 74
2020-06-22 18:00:00 23.9 12 Sur 16 Sur 0 -- -- 74
2020-06-22 17:00:00 24 10 Sur 17 Sudeste 0 -- -- 78
2020-06-22 16:00:00 24.5 13 Sur 19 Sur 0 -- -- 78
2020-06-22 15:00:00 23.7 15 Sur 20 Sur 0 -- -- 84
2020-06-22 14:00:00 23.7 15 Sur 22 Sudoeste 0 -- -- 87
2020-06-22 13:00:00 23.9 14 Sur 18 Sur 0 -- -- 87
2020-06-22 12:00:00 24.6 10 Sur 15 Sur 0 -- -- 87
2020-06-22 11:00:00 24.6 10 Sur 14 Sudeste 0 -- -- 80
2020-06-22 10:00:00 24.9 0 Calma -- -- 0 -- -- 79
2020-06-22 09:00:00 24.2 0 Calma -- -- 0 -- -- 80
2020-06-22 08:00:00 22.9 0 Calma -- -- 0 -- -- 87
2020-06-22 07:00:00 21.3 0 Calma -- -- 0 -- -- 92
2020-06-22 06:00:00 21.1 0 Calma 11 Sudoeste 0 -- -- 92
2020-06-22 05:00:00 21.5 5 Sudoeste 10 Sudoeste 0 -- -- 90
2020-06-22 04:00:00 21.4 3 Norte 8 Norte 0 -- -- 89
2020-06-22 03:00:00 22 0 Calma 8 Oeste 0 -- -- 90
2020-06-22 02:00:00 21.2 0 Calma -- -- 0 -- -- 93
2020-06-22 01:00:00 21.3 0 Calma 7 Sudoeste 0 -- -- 93
2020-06-22 00:00:00 21.6 5 Sudoeste 15 Sudoeste 0 -- -- 93
2020-06-21 23:00:00 21.7 11 Sur 15 Sudoeste 0 -- -- 93
2020-06-21 22:00:00 22 12 Sur 15 Sur 0 -- -- 91
2020-06-21 21:00:00 22.6 9 Sur 18 Sudoeste 0 -- -- 88
2020-06-21 20:00:00 23.1 12 Sur 19 Sudoeste 0 -- -- 87
2020-06-21 19:00:00 24.5 15 Sur 27 Sudoeste 0 -- -- 80
2020-06-21 18:00:00 25.1 16 Sudoeste 28 Sudoeste 0 -- -- 77
2020-06-21 17:00:00 23.5 24 Sudoeste 32 Sudoeste 0 -- -- 84
2020-06-21 16:00:00 23.2 23 Sudoeste 32 Sur 0 -- -- 86
2020-06-21 15:00:00 22.6 26 Sudoeste 30 Sudoeste 0 -- -- 90
2020-06-21 14:00:00 22.8 21 Sudoeste 25 Sudoeste 0 -- -- 90
2020-06-21 13:00:00 23.6 13 Sur 16 Sudoeste 0 -- -- 86
2020-06-21 12:00:00 24.3 10 Sur 17 Sudeste 0 -- -- 79
2020-06-21 11:00:00 25.1 10 Sudeste 12 Sudeste 0 -- -- 72
2020-06-21 10:00:00 24.6 8 Sudeste 12 Sudeste 0 -- -- 79
2020-06-21 09:00:00 23.1 6 Sur 9 Norte 0 -- -- 83
2020-06-21 08:00:00 22.1 4 Norte 11 Norte 0 -- -- 83
2020-06-21 07:00:00 20.4 9 Norte 12 Norte 0 -- -- 89
2020-06-21 06:00:00 20.1 10 Norte 15 Noroeste 0 -- -- 91
2020-06-21 05:00:00 20.1 8 Norte 12 Norte 0 -- -- 91
2020-06-21 04:00:00 20.3 0 Calma -- -- 0 -- -- 92
2020-06-21 03:00:00 21 0 Calma 8 Oeste 0 -- -- 91
2020-06-21 02:00:00 21.3 6 Oeste 11 Oeste 0 -- -- 89
2020-06-21 01:00:00 21.1 5 Sudoeste 11 Sudoeste 0 -- -- 91
2020-06-21 00:00:00 21 8 Sudoeste 11 Sudoeste 0 -- -- 93
2020-06-20 23:00:00 21.1 10 Sudoeste 14 Sudoeste 0 -- -- 94
2020-06-20 22:00:00 21.4 11 Sur 19 Sudoeste 0 -- -- 93
2020-06-20 21:00:00 22.1 10 Sur 26 Sur 0 -- -- 91
2020-06-20 20:00:00 22.1 17 Sur 29 Sudoeste 0 -- -- 91
2020-06-20 19:00:00 22.3 24 Sur 30 Sudoeste 0 -- -- 89
2020-06-20 18:00:00 22.2 28 Sudoeste 35 Sudoeste 0 -- -- 90
2020-06-20 17:00:00 22.6 27 Sudoeste 35 Sudoeste 0 -- -- 85
2020-06-20 16:00:00 22.3 30 Sudoeste 35 Sudoeste 0 -- -- 89
2020-06-20 15:00:00 22.2 24 Sur 29 Sur 0 -- -- 91
2020-06-20 14:00:00 22.5 19 Sur 24 Sur 0 -- -- 89
2020-06-20 13:00:00 22.2 19 Sur 26 Sur 0 -- -- 86
2020-06-20 12:00:00 21.8 18 Sur 25 Sudoeste 0 -- -- 83
2020-06-20 11:00:00 22.2 17 Sur 19 Sur 0 -- -- 78
2020-06-20 10:00:00 23.2 7 Sudeste 10 Sur 0 -- -- 71
2020-06-20 09:00:00 22.5 6 Sudeste 9 Sudeste 0 -- -- 75
2020-06-20 08:00:00 20.5 3 Noroeste 8 Norte 0 -- -- 85
2020-06-20 07:00:00 19 3 Norte 8 Nordeste 0 -- -- 89
2020-06-20 06:00:00 18.8 0 Calma 8 Norte 0 -- -- 88
2020-06-20 05:00:00 18.9 3 Nordeste 8 Norte 0 -- -- 88
2020-06-20 04:00:00 18.8 5 Norte 8 Norte 0 -- -- 88
2020-06-20 03:00:00 19.4 2 Nordeste 12 Oeste 0 -- -- 86
2020-06-20 02:00:00 19.7 6 Oeste 12 Oeste 0 -- -- 85
2020-06-20 01:00:00 20 8 Oeste 14 Oeste 0 -- -- 85
2020-06-20 00:00:00 20.1 8 Oeste 17 Oeste 0 -- -- 85
2020-06-19 23:00:00 20.2 9 Oeste 17 Sudoeste 0 -- -- 84
2020-06-19 22:00:00 20.3 12 Sudoeste 19 Sudoeste 0 -- -- 84
2020-06-19 21:00:00 20.8 14 Sudoeste 24 Sudoeste 0 -- -- 82
2020-06-19 20:00:00 20.9 19 Sur 29 Sur 0 -- -- 80
2020-06-19 19:00:00 21.2 22 Sudoeste 28 Sudoeste 0 -- -- 78
2020-06-19 18:00:00 21.4 20 Sudoeste 27 Sudoeste 0 -- -- 73
2020-06-19 17:00:00 22 14 Sur 19 Sur 0 -- -- 68
2020-06-19 16:00:00 22.3 13 Sur 18 Sur 0 -- -- 63
2020-06-19 15:00:00 22.8 12 Sur 17 Sur 0 -- -- 63
2020-06-19 14:00:00 23.3 12 Sudeste 17 Sudeste 0 -- -- 62
2020-06-19 13:00:00 22.5 10 Sudeste 17 Sudeste 0 -- -- 62
2020-06-19 12:00:00 20.8 8 Sur 14 Sudeste 0 -- -- 73
2020-06-19 11:00:00 21.2 5 Sur 9 Sur 0 -- -- 65
2020-06-19 10:00:00 21.7 4 Sudeste 9 Noroeste 0 -- -- 66
2020-06-19 09:00:00 20.8 4 Norte 9 Nordeste 0 -- -- 73
2020-06-19 08:00:00 18.6 8 Norte 12 Norte 0 -- -- 82
2020-06-19 07:00:00 18.4 5 Norte 9 Norte 0 -- -- 84
2020-06-19 06:00:00 18 7 Norte 11 Norte 0 -- -- 85
2020-06-19 05:00:00 18.2 7 Norte 10 Nordeste 0 -- -- 82
2020-06-19 04:00:00 18.4 4 Norte 11 Norte 0 -- -- 81
2020-06-19 03:00:00 18.4 6 Norte 16 Norte 0 -- -- 82
2020-06-19 02:00:00 18.2 8 Norte 15 Norte 0 -- -- 85
2020-06-19 01:00:00 18.3 6 Norte 15 Este 0 -- -- 86
2020-06-19 00:00:00 18.3 11 Este 18 Este 0 -- -- 88
2020-06-18 23:00:00 18.4 15 Este 23 Este 0 -- -- 89
2020-06-18 22:00:00 18.4 18 Este 24 Este 0 -- -- 87
2020-06-18 21:00:00 18.6 19 Este 27 Este 0 -- -- 88
2020-06-18 20:00:00 19.2 19 Este 26 Este 0 -- -- 86
2020-06-18 19:00:00 20.2 15 Este 22 Sudeste 0 -- -- 82
2020-06-18 18:00:00 20.7 14 Este 21 Sudeste 0 -- -- 79
2020-06-18 17:00:00 21.6 15 Sudeste 22 Sudeste 0 -- -- 76
2020-06-18 16:00:00 21.2 15 Sudeste 20 Sudeste 0 -- -- 76
2020-06-18 15:00:00 20.8 15 Sudeste 19 Sudeste 0 -- -- 78
2020-06-18 14:00:00 20.9 12 Sudeste 17 Sudeste 0 -- -- 81
2020-06-18 13:00:00 20 14 Sudeste 22 Este 0 -- -- 83
2020-06-18 12:00:00 19 19 Este 28 Este 0 -- -- 84
2020-06-18 11:00:00 16.5 6 Este 34 Norte 0.6 -- -- 92
2020-06-18 10:00:00 15.1 15 Norte 27 Norte 2.3 -- -- 93
2020-06-18 09:00:00 15.6 12 Norte 24 Norte 2.8 -- -- 93
2020-06-18 08:00:00 16.1 9 Norte 17 Norte 5.1 -- -- 92
2020-06-18 07:00:00 18.3 8 Norte 23 Este 0 -- -- 77
2020-06-18 06:00:00 18.2 15 Este 23 Este 0 -- -- 82
2020-06-18 05:00:00 18.4 9 Este 18 Este 0 -- -- 78
2020-06-18 04:00:00 18.5 14 Nordeste 24 Nordeste 0 -- -- 80
2020-06-18 03:00:00 18.7 17 Este 25 Este 0 -- -- 86
2020-06-18 02:00:00 18.8 21 Este 29 Este 0 -- -- 88
2020-06-18 01:00:00 18.9 26 Este 33 Este 0 -- -- 88
2020-06-18 00:00:00 18.9 28 Este 33 Este 0 -- -- 89
2020-06-17 23:00:00 19.9 11 Este 13 Este 0 -- -- 85
2020-06-17 22:00:00 20 2 Este 8 Sur 0 -- -- 86
2020-06-17 21:00:00 20.4 9 Sur 17 Sur 0 -- -- 82
2020-06-17 20:00:00 20.5 16 Sudoeste 20 Sudoeste 0 -- -- 75
2020-06-17 19:00:00 21.1 13 Sur 20 Sur 0 -- -- 76
2020-06-17 18:00:00 21 17 Sur 23 Sur 0 -- -- 78
2020-06-17 17:00:00 20.9 21 Sur 30 Sudoeste 0 -- -- 79
2020-06-17 16:00:00 21.5 22 Sudoeste 27 Sudoeste 0 -- -- 68
2020-06-17 15:00:00 20.8 17 Sur 22 Sur 0 -- -- 68
2020-06-17 14:00:00 21.5 14 Sur 18 Sudeste 0 -- -- 71
2020-06-17 13:00:00 21.2 13 Este 21 Este 0 -- -- 81
2020-06-17 12:00:00 21.5 17 Este 19 Sudeste 0 -- -- 78
2020-06-17 11:00:00 20.8 4 Norte 18 Noroeste 0 -- -- 65
2020-06-17 10:00:00 20.1 10 Norte 18 Norte 0 -- -- 71
2020-06-17 09:00:00 18.9 9 Norte 19 Norte 0 -- -- 76
2020-06-17 08:00:00 18.7 9 Norte 16 Noroeste 0 -- -- 75
2020-06-17 07:00:00 16.8 8 Norte 13 Norte 0 -- -- 87
2020-06-17 06:00:00 16.2 6 Este 9 Nordeste 0 -- -- 92
2020-06-17 05:00:00 16.9 5 Sudeste 14 Norte 0 -- -- 92
2020-06-17 04:00:00 17.5 4 Norte 12 Noroeste 0 -- -- 89
2020-06-17 03:00:00 17.6 4 Norte 12 Norte 0 -- -- 91
2020-06-17 02:00:00 18.8 4 Oeste 14 Oeste 0 -- -- 85
2020-06-17 01:00:00 19.1 6 Sudoeste 15 Oeste 0 -- -- 83
2020-06-17 00:00:00 19.3 6 Sudoeste 9 Sudoeste 0 -- -- 81
2020-06-16 23:00:00 19.7 4 Oeste 15 Oeste 0 -- -- 77
2020-06-16 22:00:00 20 8 Oeste 14 Oeste 0 -- -- 68
2020-06-16 21:00:00 20.4 12 Sudoeste 19 Sudoeste 0 -- -- 65
2020-06-16 20:00:00 21.8 6 Noroeste 16 Oeste 0 -- -- 68
2020-06-16 19:00:00 21.6 8 Oeste 19 Noroeste 0 -- -- 67
2020-06-16 18:00:00 20.2 8 Oeste 18 Oeste 0 -- -- 76
2020-06-16 17:00:00 18.9 6 Oeste 15 Noroeste 0.5 -- -- 88
2020-06-16 16:00:00 18.1 10 Noroeste 31 Noroeste 1.6 -- -- 89
2020-06-16 15:00:00 19.8 17 Noroeste 30 Noroeste 0 -- -- 77
2020-06-16 14:00:00 21.2 6 Oeste 14 Oeste 0 -- -- 67
2020-06-16 13:00:00 21.1 3 Este 17 Oeste 0 -- -- 70
2020-06-16 12:00:00 19.7 10 Oeste 26 Oeste 0 -- -- 78
2020-06-16 11:00:00 19.6 15 Oeste 29 Oeste 0 -- -- 76
2020-06-16 10:00:00 20.4 6 Noroeste 17 Oeste 0 -- -- 74
2020-06-16 09:00:00 19.5 12 Oeste 22 Oeste 0 -- -- 82
2020-06-16 08:00:00 18.5 7 Noroeste 16 Noroeste 0 -- -- 91
2020-06-16 07:00:00 18.5 8 Norte 17 Norte 0 -- -- 91
2020-06-16 06:00:00 18.6 7 Norte 14 Nordeste 1.4 -- -- 91
2020-06-16 05:00:00 19.7 6 Norte 19 Noroeste 1 -- -- 88
2020-06-16 04:00:00 19.8 0 Calma 10 Nordeste 0 -- -- 89
2020-06-16 03:00:00 19.8 6 Norte 15 Noroeste 0 -- -- 89
2020-06-16 02:00:00 19.8 2 Sudeste 9 Este 0 -- -- 91
2020-06-16 01:00:00 20 8 Este 10 Este 0 -- -- 91
2020-06-16 00:00:00 20.1 6 Sudeste 11 Sudeste 0 -- -- 91
2020-06-15 23:00:00 20.4 9 Sudeste 19 Sudeste 0 -- -- 91
2020-06-15 22:00:00 20.4 18 Sudeste 24 Sudeste 0 -- -- 91
2020-06-15 21:00:00 20.9 21 Sudeste 23 Sudeste 0 -- -- 92
2020-06-15 20:00:00 21.5 15 Sur 29 Sur 0 -- -- 90
2020-06-15 19:00:00 22.4 22 Sudoeste 34 Sur 0 -- -- 80
2020-06-15 18:00:00 21.1 27 Sudoeste 34 Sur 0 -- -- 86
2020-06-15 17:00:00 21.3 28 Sur 34 Sudoeste 0 -- -- 81
2020-06-15 16:00:00 21.6 23 Sur 30 Sudoeste 0 -- -- 75
2020-06-15 15:00:00 21.6 24 Sudoeste 29 Sudoeste 0 -- -- 71
2020-06-15 14:00:00 21.4 26 Sudoeste 30 Sudoeste 0 -- -- 73
2020-06-15 13:00:00 22.2 15 Sur 21 Sudoeste 0 -- -- 79
2020-06-15 12:00:00 23 8 Sur 14 Sur 0 -- -- 72
2020-06-15 11:00:00 24 8 Este 12 Este 0 -- -- 71
2020-06-15 10:00:00 24.1 7 Sudeste 11 Este 0 -- -- 69
2020-06-15 09:00:00 21.9 5 Nordeste 10 Norte 0 -- -- 71
2020-06-15 08:00:00 19.6 7 Norte 12 Norte 0 -- -- 78
2020-06-15 07:00:00 19 4 Norte 7 Norte 0 -- -- 81
2020-06-15 06:00:00 18.8 5 Norte 9 Norte 0 -- -- 84
2020-06-15 05:00:00 18.8 7 Norte 10 Nordeste 0 -- -- 85
2020-06-15 04:00:00 18.9 5 Norte 10 Norte 0 -- -- 89
2020-06-15 03:00:00 19.2 6 Norte 12 Nordeste 0 -- -- 87
2020-06-15 02:00:00 19.4 8 Norte 15 Nordeste 0 -- -- 83
2020-06-15 01:00:00 19.9 6 Norte 11 Norte 0 -- -- 84
2020-06-15 00:00:00 20.1 0 Calma 4 Sur 0 -- -- 90
2020-06-14 23:00:00 20.6 3 Oeste 20 Oeste 0 -- -- 89
2020-06-14 22:00:00 20.7 11 Sudoeste 26 Sudoeste 0 -- -- 89
2020-06-14 21:00:00 21.6 17 Sudoeste 26 Sudoeste 0 -- -- 78
2020-06-14 20:00:00 21.8 21 Sudoeste 31 Sudoeste 0 -- -- 80
2020-06-14 19:00:00 22.5 21 Sudoeste 28 Sur 0 -- -- 75
2020-06-14 18:00:00 21.9 18 Sudoeste 32 Sudoeste 0 -- -- 75
2020-06-14 17:00:00 21.7 23 Sudoeste 33 Sudoeste 0 -- -- 84
2020-06-14 16:00:00 20.8 23 Sudoeste 30 Sudoeste 0 -- -- 90
2020-06-14 15:00:00 20.7 22 Sudoeste 27 Sur 0 -- -- 90
2020-06-14 14:00:00 21.6 20 Sur 24 Sur 0 -- -- 86
2020-06-14 13:00:00 23.4 13 Sur 20 Sur 0 -- -- 81
2020-06-14 12:00:00 23.2 10 Sudeste 14 Este 0 -- -- 68
2020-06-14 11:00:00 22.9 8 Este 11 Este 0 -- -- 64
2020-06-14 10:00:00 23.5 5 Este 12 Este 0 -- -- 57
2020-06-14 09:00:00 21.6 5 Norte 13 Norte 0 -- -- 61
2020-06-14 08:00:00 19.9 7 Norte 15 Norte 0 -- -- 67
2020-06-14 07:00:00 18.5 7 Norte 13 Norte 0 -- -- 70
2020-06-14 06:00:00 18.1 9 Norte 13 Norte 0 -- -- 73
2020-06-14 05:00:00 18.4 8 Norte 14 Norte 0 -- -- 72
2020-06-14 04:00:00 18.8 5 Norte 12 Norte 0 -- -- 69
2020-06-14 03:00:00 19.3 7 Norte 11 Norte 0 -- -- 68
2020-06-14 02:00:00 20 9 Este 14 Este 0 -- -- 69
2020-06-14 01:00:00 20.5 8 Este -- -- -- -- -- 72
2020-06-14 00:00:00 20.3 17 Este 23 Nordeste 0 -- -- 73
2020-06-13 23:00:00 20.5 12 Nordeste 22 Este 0 -- -- 78
2020-06-13 22:00:00 20.7 6 Nordeste 26 Este 0 -- -- 80
2020-06-13 21:00:00 20.8 17 Nordeste 32 Este 0 -- -- 85
2020-06-13 20:00:00 22.7 9 Nordeste 36 Oeste 0 -- -- 66
2020-06-13 19:00:00 26.9 15 Oeste 35 Oeste 0 -- -- 32
2020-06-13 18:00:00 27 16 Noroeste 35 Noroeste 0 -- -- 33
2020-06-13 17:00:00 26.5 13 Oeste 40 Oeste 0 -- -- 34
2020-06-13 16:00:00 26.4 13 Noroeste 41 Noroeste 0 -- -- 35
2020-06-13 15:00:00 25.6 18 Oeste 37 Sudoeste 0 -- -- 39
2020-06-13 14:00:00 24.8 22 Sudoeste 41 Sudoeste 0 -- -- 43
2020-06-13 13:00:00 24.6 16 Sudoeste 38 Oeste 0 -- -- 41
2020-06-13 12:00:00 23.5 16 Oeste 33 Oeste 0 -- -- 43
2020-06-13 11:00:00 23.4 10 Noroeste 27 Noroeste 0 -- -- 46
2020-06-13 10:00:00 21.8 4 Norte 14 Norte 0 -- -- 49
2020-06-13 09:00:00 20.5 3 Noroeste 15 Noroeste 0 -- -- 54
2020-06-13 08:00:00 17.5 8 Norte 23 Nordeste 0 -- -- 85
2020-06-13 07:00:00 17.5 11 Norte 21 Norte 0 -- -- 74
2020-06-13 06:00:00 18.3 8 Norte 17 Norte 0 -- -- 74
2020-06-13 05:00:00 18.2 8 Norte 13 Norte 0 -- -- 74
2020-06-13 04:00:00 18.4 5 Norte 11 Norte 0 -- -- 74
2020-06-13 03:00:00 18.9 5 Norte 11 Norte 0 -- -- 71
2020-06-13 02:00:00 19.5 5 Norte 8 Nordeste 0 -- -- 69
2020-06-13 01:00:00 20.3 5 Oeste 19 Oeste 0 -- -- 76
2020-06-13 00:00:00 20.5 12 Oeste 31 Oeste 0 -- -- 76
2020-06-12 23:00:00 20.7 12 Oeste 29 Oeste 0 -- -- 76
2020-06-12 22:00:00 20.9 17 Sudoeste 35 Sudoeste 0 -- -- 69
2020-06-12 21:00:00 21.5 19 Sudoeste 36 Oeste 0 -- -- 65
2020-06-12 20:00:00 22.9 18 Oeste 37 Oeste 0 -- -- 47
2020-06-12 19:00:00 23 21 Sudoeste 42 Sudoeste 0 -- -- 51
2020-06-12 18:00:00 22.5 30 Sudoeste 46 Sudoeste 0 -- -- 56
2020-06-12 17:00:00 22.2 26 Sudoeste 39 Sudoeste 0 -- -- 58
2020-06-12 16:00:00 22.4 31 Sudoeste 43 Sudoeste 0 -- -- 60
2020-06-12 15:00:00 21.7 33 Sudoeste 41 Sudoeste 0 -- -- 70
2020-06-12 14:00:00 21.8 32 Sudoeste 40 Sudoeste 0 -- -- 68
2020-06-12 13:00:00 24.2 11 Sudoeste 28 Sur 0 -- -- 44
2020-06-12 12:00:00 23.5 11 Oeste 29 Oeste 0 -- -- 47
2020-06-12 11:00:00 22.8 15 Oeste 30 Oeste 0 -- -- 48
2020-06-12 10:00:00 23.3 9 Oeste 21 Oeste 0 -- -- 56
2020-06-12 09:00:00 22.2 8 Noroeste 15 Noroeste 0 -- -- 62
2020-06-12 08:00:00 20 8 Noroeste 14 Noroeste 0 -- -- 86
2020-06-12 07:00:00 20.1 5 Norte 10 Norte 0 -- -- 91
2020-06-12 06:00:00 19.9 0 Calma 12 Sur 0 -- -- 92
2020-06-12 05:00:00 20 6 Sur 21 Sudeste 0 -- -- 92
2020-06-12 04:00:00 19.7 16 Este 18 Sudeste 0 -- -- 93
2020-06-12 03:00:00 19.7 13 Este 17 Sudeste 0 -- -- 93
2020-06-12 02:00:00 19.9 15 Sudeste 18 Sudeste 0 -- -- 93
2020-06-12 01:00:00 20 15 Este 39 Este 0 -- -- 93
2020-06-12 00:00:00 20 14 Sudeste 16 Sudeste 0 -- -- 93
2020-06-11 23:00:00 20.1 9 Sudeste 13 Sudeste 0 -- -- 92
2020-06-11 22:00:00 20.1 7 Sur 18 Sudoeste 0 -- -- 92
2020-06-11 21:00:00 20.4 9 Sur 12 Sur 0 -- -- 92
2020-06-11 20:00:00 20.6 9 Sur 18 Sur 0 -- -- 91
2020-06-11 19:00:00 21.1 13 Sur 22 Sudoeste 0 -- -- 90
2020-06-11 18:00:00 22.1 12 Sur 20 Sudoeste 0 -- -- 85
2020-06-11 17:00:00 21.7 15 Este 20 Este 0 -- -- 83
2020-06-11 16:00:00 21.6 16 Este 21 Este 0 -- -- 81
2020-06-11 15:00:00 20.3 16 Este 22 Este 0 -- -- 86
2020-06-11 14:00:00 19.7 19 Este 23 Este 0 -- -- 85
2020-06-11 13:00:00 20.2 17 Este 24 Este 0 -- -- 80
2020-06-11 12:00:00 19.6 15 Este 21 Este 0 -- -- 79
2020-06-11 11:00:00 18.9 13 Este 17 Este 0 -- -- 82
2020-06-11 10:00:00 17.9 10 Este 16 Sudeste 0 -- -- 84
2020-06-11 09:00:00 18 13 Sudeste 17 Este 0 -- -- 82
2020-06-11 08:00:00 17.8 15 Este 19 Este 0 -- -- 80
2020-06-11 07:00:00 16.9 6 Nordeste 13 Norte 0 -- -- 85
2020-06-11 06:00:00 16.9 8 Norte 11 Nordeste 0 -- -- 85
2020-06-11 05:00:00 17.1 7 Norte 11 Norte 0 -- -- 86
2020-06-11 04:00:00 17.5 5 Norte 9 Norte 0 -- -- 85
2020-06-11 03:00:00 17.7 4 Nordeste 11 Este 0 -- -- 85
2020-06-11 02:00:00 18 0 Calma 6 Este 0 -- -- 85
2020-06-11 01:00:00 18.2 4 Este 12 Este 0 -- -- 83
2020-06-11 00:00:00 18.3 7 Este 14 Este 0 -- -- 83
2020-06-10 23:00:00 18.4 8 Este 15 Este 0 -- -- 80
2020-06-10 22:00:00 18.2 13 Este 18 Este 0 -- -- 80
2020-06-10 21:00:00 18.3 12 Este 19 Este 0 -- -- 82
2020-06-10 20:00:00 18 17 Este 24 Este 0 -- -- 86
2020-06-10 19:00:00 20.1 14 Sudeste 20 Sudeste 0 -- -- 73
2020-06-10 18:00:00 20.5 11 Sur 21 Sur 0 -- -- 70
2020-06-10 17:00:00 19.8 15 Sudoeste 26 Sudoeste 0 -- -- 72
2020-06-10 16:00:00 19.5 19 Sudoeste 28 Sudoeste 0 -- -- 74
2020-06-10 15:00:00 19.7 18 Sudoeste 25 Sudoeste 0 -- -- 77
2020-06-10 14:00:00 19.7 16 Sur 22 Sur 0 -- -- 73
2020-06-10 13:00:00 20.2 13 Sur 20 Sur 0 -- -- 65
2020-06-10 12:00:00 20.9 12 Sur 19 Sudeste 0 -- -- 66
2020-06-10 11:00:00 20.3 10 Sudeste 14 Sur 0 -- -- 69
2020-06-10 10:00:00 18.6 8 Sudoeste 13 Sudoeste 0 -- -- 74
2020-06-10 09:00:00 17.7 6 Norte 14 Noroeste 0 -- -- 76
2020-06-10 08:00:00 15.6 7 Norte 17 Nordeste 0 -- -- 86
2020-06-10 07:00:00 15 6 Nordeste 14 Norte 0 -- -- 88
2020-06-10 06:00:00 15.4 5 Norte 14 Norte 0 -- -- 86
2020-06-10 05:00:00 15.2 8 Noroeste 17 Norte 0 -- -- 88
2020-06-10 04:00:00 15 10 Norte 16 Norte 0 -- -- 89
2020-06-10 03:00:00 15 9 Norte 15 Noroeste 0 -- -- 91
2020-06-10 02:00:00 15.1 4 Norte 12 Nordeste 0.1 -- -- 92
2020-06-10 01:00:00 15.3 0 Calma 20 Oeste 2.8 -- -- 91
2020-06-10 00:00:00 15.9 12 Noroeste 21 Noroeste 0.8 -- -- 86
2020-06-09 23:00:00 16.9 5 Noroeste 9 Norte 0 -- -- 80
2020-06-09 22:00:00 16.4 5 Norte 12 Norte 0 -- -- 85
2020-06-09 21:00:00 16.3 5 Norte 10 Norte 0 -- -- 85
2020-06-09 20:00:00 16 4 Norte 21 Sur 1.8 -- -- 89
2020-06-09 19:00:00 14.8 8 Norte 28 Este 1.1 -- -- 91
2020-06-09 18:00:00 15.1 18 Este 30 Este 0.2 -- -- 90
2020-06-09 17:00:00 17 3 Oeste 19 Sudoeste 2.9 -- -- 84
2020-06-09 16:00:00 17.8 21 Sudoeste 26 Sur 1.7 -- -- 77
2020-06-09 15:00:00 21.4 14 Sur 21 Sur 0 -- -- 60
2020-06-09 14:00:00 20.9 15 Sudeste 21 Sudeste 0 -- -- 68
2020-06-09 13:00:00 21.1 15 Sudeste 24 Sudeste 0 -- -- 68
2020-06-09 12:00:00 20.6 20 Sudeste 25 Sudeste 0 -- -- 69
2020-06-09 11:00:00 21.1 10 Este 19 Nordeste 0 -- -- 55
2020-06-09 10:00:00 19.1 9 Norte 24 Norte 0 -- -- 61
2020-06-09 09:00:00 17.3 13 Norte 27 Noroeste 0 -- -- 66
2020-06-09 08:00:00 16.4 10 Noroeste 22 Norte 0 -- -- 69
2020-06-09 07:00:00 16.4 7 Noroeste 14 Norte 0 -- -- 70
2020-06-09 06:00:00 15.6 5 Oeste 15 Oeste 0 -- -- 79
2020-06-09 05:00:00 16.1 10 Oeste 17 Noroeste 0 -- -- 76
2020-06-09 04:00:00 15.9 8 Noroeste 19 Norte 0 -- -- 80
2020-06-09 03:00:00 16.5 6 Norte 14 Norte 0 -- -- 79
2020-06-09 02:00:00 16.9 2 Norte 17 Oeste 0 -- -- 70
2020-06-09 01:00:00 17.5 7 Noroeste 16 Noroeste 0 -- -- 62
2020-06-09 00:00:00 16.7 8 Noroeste 16 Norte 0 -- -- 77
2020-06-08 23:00:00 16.7 8 Norte 18 Noroeste 0 -- -- 79
2020-06-08 22:00:00 17.3 5 Este 18 Este 0 -- -- 78
2020-06-08 21:00:00 18.3 6 Sur 10 Sudeste 0 -- -- 59
2020-06-08 20:00:00 18.5 8 Sur 19 Sudoeste 0 -- -- 60
2020-06-08 19:00:00 18.2 15 Sur 24 Sudoeste 0 -- -- 62
2020-06-08 18:00:00 19.2 17 Sur 25 Sur 0 -- -- 58
2020-06-08 17:00:00 19.4 15 Sur 26 Sudoeste 0 -- -- 58
2020-06-08 16:00:00 19.6 19 Sur 25 Sur 0 -- -- 58
2020-06-08 15:00:00 20 13 Sur 23 Sur 0 -- -- 59
2020-06-08 14:00:00 19.4 12 Sur 21 Sudeste 0 -- -- 62
2020-06-08 13:00:00 18.5 13 Sudeste 24 Sudeste 0 -- -- 68
2020-06-08 12:00:00 17.6 19 Sudeste 29 Sudeste 0 -- -- 72
2020-06-08 11:00:00 16.6 24 Sudeste 35 Sudeste 0 -- -- 77
2020-06-08 10:00:00 15.8 20 Sur 28 Sur 0 -- -- 85
2020-06-08 09:00:00 16.2 8 Noroeste 19 Noroeste 0 -- -- 73
2020-06-08 08:00:00 16.1 5 Norte 15 Noroeste 0 -- -- 74
2020-06-08 07:00:00 15.9 9 Noroeste 19 Noroeste 0 -- -- 75
2020-06-08 06:00:00 16.3 8 Noroeste 17 Noroeste 0 -- -- 76
2020-06-08 05:00:00 16.8 8 Noroeste 16 Noroeste 0 -- -- 82
2020-06-08 04:00:00 16.5 5 Noroeste 9 Norte 0 -- -- 88
2020-06-08 03:00:00 16.2 2 Norte 12 Norte 0.4 -- -- 90
2020-06-08 02:00:00 17.2 4 Nordeste 10 Noroeste 0 -- -- 85
2020-06-08 01:00:00 17 5 Norte 18 Norte 0 -- -- 88
2020-06-08 00:00:00 16.4 12 Noroeste 24 Norte 0.1 -- -- 90